Time;durP1;ratioP1;P1;durP2;ratioP2;P2;SDS_P1;SDS_P2;PMS_P1;PMS_P2;Temp;Humidity;BMP_temperature;BMP_pressure;BME280_temperature;BME280_humidity;BME280_pressure;Samples;Min_cycle;Max_cycle;Signal;HPM_P1;HPM_P2
2022/07/18 00:01:01;;;;;;;1.23;0.77;;;;;;;19.79;nan;101238.47;5018715;28;20115;-66
2022/07/18 00:03:27;;;;;;;1.45;0.90;;;;;;;19.78;nan;101240.28;5020949;28;20037;-66
2022/07/18 00:05:52;;;;;;;1.65;0.95;;;;;;;19.75;nan;101238.00;5030684;28;20061;-66
2022/07/18 00:08:18;;;;;;;1.95;0.90;;;;;;;19.77;nan;101241.31;5029659;28;20044;-67
2022/07/18 00:10:43;;;;;;;3.08;0.88;;;;;;;19.83;nan;101235.19;5030531;28;20044;-66
2022/07/18 00:13:10;;;;;;;1.70;0.90;;;;;;;19.87;nan;101244.50;5012946;28;20509;-67
2022/07/18 00:15:37;;;;;;;2.80;0.90;;;;;;;19.93;nan;101241.03;5030268;28;20271;-66
2022/07/18 00:18:03;;;;;;;2.85;0.90;;;;;;;20.04;nan;101238.81;5028063;28;20037;-66
2022/07/18 00:20:29;;;;;;;2.00;1.10;;;;;;;20.08;nan;101240.91;5028022;28;20069;-66
2022/07/18 00:22:55;;;;;;;3.47;1.00;;;;;;;20.03;nan;101255.97;5011428;28;20037;-66
2022/07/18 00:25:22;;;;;;;1.60;0.82;;;;;;;19.93;nan;101253.63;5029597;28;20374;-66
2022/07/18 00:27:48;;;;;;;2.63;0.90;;;;;;;19.81;nan;101255.22;5010929;28;20034;-66
2022/07/18 00:30:14;;;;;;;2.00;0.90;;;;;;;19.81;nan;101256.03;5027324;28;20490;-67
2022/07/18 00:32:40;;;;;;;1.20;0.80;;;;;;;19.82;nan;101254.16;5005849;28;20048;-66
2022/07/18 00:35:06;;;;;;;1.73;0.88;;;;;;;19.78;nan;101253.72;5007137;28;20029;-66
2022/07/18 00:37:32;;;;;;;2.10;0.80;;;;;;;19.74;nan;101249.78;5004576;28;20037;-66
2022/07/18 00:39:57;;;;;;;3.10;0.90;;;;;;;19.75;nan;101253.28;5027784;28;20038;-66
2022/07/18 00:42:23;;;;;;;3.15;1.17;;;;;;;19.70;nan;101260.06;5028289;28;20026;-66
2022/07/18 00:44:55;;;;;;;4.28;1.20;;;;;;;19.65;nan;101259.78;5010839;28;20033;-66
2022/07/18 00:47:21;;;;;;;2.17;1.00;;;;;;;19.59;nan;101257.03;5010665;28;20037;-66
2022/07/18 00:49:47;;;;;;;2.45;1.00;;;;;;;19.50;nan;101253.69;5028293;28;20033;-66
2022/07/18 00:52:12;;;;;;;1.65;0.77;;;;;;;19.40;nan;101247.78;5009785;28;20037;-66
2022/07/18 00:54:38;;;;;;;1.58;0.80;;;;;;;19.33;nan;101250.44;5028220;28;20037;-66
2022/07/18 00:57:04;;;;;;;1.70;1.00;;;;;;;19.28;nan;101247.47;5029681;28;20362;-66
2022/07/18 01:02:14;;;;;;;1.33;0.73;;;;;;;19.09;nan;101243.56;5011830;28;20392;-66
2022/07/18 01:04:40;;;;;;;1.67;0.80;;;;;;;19.00;nan;101247.41;5010987;28;20033;-66
2022/07/18 01:07:05;;;;;;;1.30;0.70;;;;;;;19.07;nan;101242.94;5027454;28;20786;-66
2022/07/18 01:09:30;;;;;;;2.28;0.85;;;;;;;18.96;nan;101238.06;5051687;23;20044;-65
2022/07/18 01:11:56;;;;;;;1.33;0.70;;;;;;;18.85;nan;101244.75;5044386;28;20041;-65
2022/07/18 01:14:21;;;;;;;1.25;0.70;;;;;;;18.72;nan;101239.22;5046133;28;20387;-65
2022/07/18 01:16:49;;;;;;;1.75;0.90;;;;;;;18.57;nan;101244.59;5014581;28;20049;-65
2022/07/18 01:19:14;;;;;;;1.92;0.77;;;;;;;18.46;nan;101235.19;5045098;28;20128;-65
2022/07/18 01:21:39;;;;;;;0.70;0.60;;;;;;;18.39;nan;101236.94;5046465;28;20375;-66
2022/07/18 01:24:05;;;;;;;0.90;0.60;;;;;;;18.29;nan;101245.25;5046463;28;20128;-70
2022/07/18 01:26:30;;;;;;;0.73;0.52;;;;;;;18.22;nan;101253.19;5044350;28;20036;-67
2022/07/18 01:28:56;;;;;;;1.48;0.90;;;;;;;18.29;nan;101239.09;5048357;28;20037;-67
2022/07/18 01:31:21;;;;;;;1.77;0.90;;;;;;;18.35;nan;101249.03;5047012;28;20815;-67
2022/07/18 01:33:46;;;;;;;2.30;0.90;;;;;;;18.43;nan;101246.28;5046027;28;20292;-68
2022/07/18 01:36:12;;;;;;;1.20;0.63;;;;;;;18.42;nan;101253.50;5047437;28;20443;-67
2022/07/18 01:38:38;;;;;;;1.27;0.68;;;;;;;18.33;nan;101254.59;5046461;28;20124;-69
2022/07/18 01:41:03;;;;;;;2.47;0.70;;;;;;;18.41;nan;101251.81;5046264;28;20477;-68
2022/07/18 01:43:29;;;;;;;1.35;0.60;;;;;;;18.28;nan;101258.81;5048390;28;20052;-69
2022/07/18 01:45:55;;;;;;;0.98;0.63;;;;;;;18.13;nan;101258.81;5047098;28;20033;-68
2022/07/18 01:48:22;;;;;;;1.17;0.60;;;;;;;18.04;nan;101252.72;5046475;28;20071;-67
2022/07/18 01:50:48;;;;;;;1.90;0.90;;;;;;;18.06;nan;101250.69;5046884;28;20068;-71
2022/07/18 01:53:13;;;;;;;2.08;0.80;;;;;;;18.12;nan;101249.97;5046185;28;20060;-68
2022/07/18 01:55:39;;;;;;;3.83;0.90;;;;;;;18.24;nan;101253.03;5048395;28;20068;-67
2022/07/18 01:58:05;;;;;;;1.75;0.88;;;;;;;18.29;nan;101244.44;5046995;28;20284;-67
2022/07/18 02:00:30;;;;;;;1.65;1.00;;;;;;;18.30;nan;101249.59;5046990;28;20060;-67
2022/07/18 02:02:56;;;;;;;2.22;0.90;;;;;;;18.29;nan;101245.25;5046005;28;20053;-69
2022/07/18 02:05:21;;;;;;;1.58;0.80;;;;;;;18.28;nan;101243.59;5048669;28;20043;-67
2022/07/18 02:07:46;;;;;;;1.38;0.80;;;;;;;18.21;nan;101245.34;5046348;28;20485;-68
2022/07/18 02:10:18;;;;;;;0.93;0.60;;;;;;;18.11;nan;101247.47;5046756;28;20029;-68
2022/07/18 02:12:44;;;;;;;1.15;0.52;;;;;;;18.01;nan;101247.72;5044959;28;20037;-67
2022/07/18 02:15:12;;;;;;;0.95;0.70;;;;;;;17.91;nan;101250.69;5046531;28;20043;-67
2022/07/18 02:17:38;;;;;;;0.85;0.60;;;;;;;17.86;nan;101246.91;5046181;28;20048;-67
2022/07/18 02:20:06;;;;;;;0.98;0.60;;;;;;;17.79;nan;101244.09;5047275;28;20110;-70
2022/07/18 02:22:31;;;;;;;1.05;0.70;;;;;;;17.75;nan;101248.13;5048000;28;20064;-68
2022/07/18 02:24:56;;;;;;;1.40;0.75;;;;;;;17.72;nan;101245.81;5048986;28;20033;-67
2022/07/18 02:27:22;;;;;;;0.93;0.60;;;;;;;17.59;nan;101243.75;5048995;28;20033;-67
2022/07/18 02:29:47;;;;;;;0.73;0.55;;;;;;;17.47;nan;101245.19;5049120;28;20132;-67
2022/07/18 02:32:13;;;;;;;1.52;0.60;;;;;;;17.33;nan;101241.47;5048071;28;20119;-68
2022/07/18 02:34:38;;;;;;;2.15;0.75;;;;;;;17.20;nan;101239.38;5047329;28;20033;-68
2022/07/18 02:37:04;;;;;;;1.23;0.60;;;;;;;17.09;nan;101243.31;5046805;28;20087;-67
2022/07/18 02:39:30;;;;;;;0.93;0.60;;;;;;;16.99;nan;101248.03;5036848;28;20291;-69
2022/07/18 02:41:55;;;;;;;1.05;0.65;;;;;;;16.91;nan;101242.72;5044841;28;20028;-67
2022/07/18 02:44:21;;;;;;;0.95;0.55;;;;;;;16.81;nan;101248.31;5045964;28;20045;-67
2022/07/18 02:46:47;;;;;;;1.05;0.60;;;;;;;16.70;nan;101249.47;5029632;28;20036;-70
2022/07/18 02:49:26;;;;;;;1.25;0.75;;;;;;;16.62;nan;101241.53;5047536;28;20511;-65
2022/07/18 02:51:53;;;;;;;1.13;0.77;;;;;;;16.55;nan;101236.03;5047582;28;20091;-65
2022/07/18 02:54:18;;;;;;;1.13;0.73;;;;;;;16.50;nan;101241.06;5047012;28;20033;-65
2022/07/18 02:56:44;;;;;;;1.17;0.70;;;;;;;16.45;nan;101234.59;5028039;28;20033;-65
2022/07/18 02:59:10;;;;;;;1.48;0.70;;;;;;;16.40;nan;101232.44;5045628;28;20501;-65
2022/07/18 03:01:35;;;;;;;1.90;0.80;;;;;;;16.34;nan;101233.13;5046126;28;20044;-64
2022/07/18 03:04:02;;;;;;;1.42;0.60;;;;;;;16.28;nan;101231.97;5045004;28;20045;-65
2022/07/18 03:06:28;;;;;;;1.20;0.73;;;;;;;16.23;nan;101234.34;5042976;28;20408;-65
2022/07/18 03:08:53;;;;;;;1.88;0.82;;;;;;;16.21;nan;101235.47;5046106;28;20033;-65
2022/07/18 03:11:18;;;;;;;1.77;0.60;;;;;;;16.24;nan;101227.97;5045874;28;20072;-65
2022/07/18 03:13:43;;;;;;;2.58;0.80;;;;;;;16.27;nan;101226.81;5045216;28;20103;-64
2022/07/18 03:16:09;;;;;;;2.25;0.88;;;;;;;16.35;nan;101227.63;5045871;28;20038;-66
2022/07/18 03:18:34;;;;;;;1.70;1.00;;;;;;;16.47;nan;101224.53;5046596;28;20485;-64
2022/07/18 03:20:59;;;;;;;2.67;1.00;;;;;;;16.58;nan;101226.00;5028456;28;20049;-65
2022/07/18 03:23:24;;;;;;;1.20;0.80;;;;;;;16.64;nan;101233.34;5046392;28;20296;-64
2022/07/18 03:25:50;;;;;;;2.45;0.80;;;;;;;16.69;nan;101233.66;5045089;28;20051;-65
2022/07/18 03:28:15;;;;;;;3.15;0.80;;;;;;;16.74;nan;101233.94;5047243;28;20029;-65
2022/07/18 03:30:40;;;;;;;3.00;1.00;;;;;;;16.67;nan;101225.81;5047042;28;20033;-65
2022/07/18 03:33:05;;;;;;;2.08;0.70;;;;;;;16.61;nan;101225.66;5044821;28;20493;-67
2022/07/18 03:35:31;;;;;;;1.23;0.60;;;;;;;16.53;nan;101226.53;5045783;28;20048;-66
2022/07/18 03:37:56;;;;;;;1.60;0.80;;;;;;;16.48;nan;101226.22;5045310;28;20330;-66
2022/07/18 03:40:21;;;;;;;2.93;0.60;;;;;;;16.45;nan;101227.41;5046451;28;20064;-67
2022/07/18 03:42:46;;;;;;;2.25;0.70;;;;;;;16.42;nan;101227.75;5045764;28;20299;-67
2022/07/18 03:45:12;;;;;;;1.67;0.70;;;;;;;16.38;nan;101233.63;5045326;28;20086;-67
2022/07/18 03:47:37;;;;;;;2.45;0.80;;;;;;;16.32;nan;101243.94;5045122;28;20033;-67
2022/07/18 03:50:03;;;;;;;1.58;0.80;;;;;;;16.28;nan;101249.81;5045370;28;20707;-66
2022/07/18 03:52:28;;;;;;;1.77;0.80;;;;;;;16.25;nan;101242.16;5045883;28;20029;-66
2022/07/18 03:54:53;;;;;;;2.00;0.70;;;;;;;16.19;nan;101235.66;5047390;28;20160;-66
2022/07/18 03:57:18;;;;;;;1.70;0.90;;;;;;;16.09;nan;101251.88;5048639;28;20040;-65
2022/07/18 03:59:44;;;;;;;1.87;0.87;;;;;;;16.05;nan;101244.38;5047979;28;20041;-64
2022/07/18 04:02:09;;;;;;;1.38;0.80;;;;;;;16.03;nan;101241.88;5046861;28;20288;-65
2022/07/18 04:04:34;;;;;;;1.00;0.60;;;;;;;16.02;nan;101244.72;5050422;28;20098;-65
2022/07/18 04:07:00;;;;;;;1.20;0.80;;;;;;;15.97;nan;101242.56;5048542;28;20044;-65
2022/07/18 04:09:26;;;;;;;2.17;0.80;;;;;;;15.95;nan;101249.06;5049017;28;20037;-65
2022/07/18 04:11:51;;;;;;;1.73;0.80;;;;;;;15.90;nan;101250.41;5049894;28;20033;-66
2022/07/18 04:14:16;;;;;;;2.08;0.80;;;;;;;15.86;nan;101248.25;5047607;28;20037;-65
2022/07/18 04:16:43;;;;;;;1.10;0.80;;;;;;;15.86;nan;101251.75;5050292;28;20413;-65
2022/07/18 04:19:08;;;;;;;1.35;0.70;;;;;;;15.89;nan;101261.22;5049567;28;20288;-65
2022/07/18 04:21:34;;;;;;;2.53;1.25;;;;;;;15.87;nan;101250.75;5048870;28;20520;-65
2022/07/18 04:23:59;;;;;;;1.80;0.90;;;;;;;15.90;nan;101255.75;5048586;28;20033;-64
2022/07/18 04:26:24;;;;;;;1.83;1.20;;;;;;;15.90;nan;101254.91;5049761;28;20036;-65
2022/07/18 04:28:50;;;;;;;2.20;1.13;;;;;;;15.89;nan;101263.91;5050913;28;20490;-65
2022/07/18 04:31:15;;;;;;;2.70;1.30;;;;;;;15.87;nan;101263.22;5050936;28;20041;-65
2022/07/18 04:33:40;;;;;;;2.90;1.00;;;;;;;15.85;nan;101268.75;5050512;28;20040;-64
2022/07/18 04:36:06;;;;;;;3.28;1.10;;;;;;;15.84;nan;101266.25;5049594;28;20033;-65
2022/07/18 04:38:34;;;;;;;2.17;1.20;;;;;;;15.84;nan;101259.06;5048743;28;20037;-65
2022/07/18 04:40:59;;;;;;;2.03;0.98;;;;;;;15.84;nan;101259.06;5048132;28;20493;-65
2022/07/18 04:43:24;;;;;;;2.05;1.00;;;;;;;15.83;nan;101264.59;5030869;28;20041;-65
2022/07/18 04:45:50;;;;;;;1.35;0.90;;;;;;;15.85;nan;101258.09;5049226;28;20059;-65
2022/07/18 04:48:15;;;;;;;1.33;1.00;;;;;;;15.80;nan;101260.44;5047292;28;20072;-64
2022/07/18 04:50:40;;;;;;;2.42;1.27;;;;;;;15.81;nan;101259.41;5048772;28;20098;-65
2022/07/18 04:53:06;;;;;;;2.85;1.17;;;;;;;15.82;nan;101265.56;5047807;28;20033;-64
2022/07/18 04:55:31;;;;;;;2.58;1.10;;;;;;;15.86;nan;101264.25;5049016;28;20120;-67
2022/07/18 04:57:56;;;;;;;4.13;1.30;;;;;;;15.93;nan;101257.25;5047778;28;20044;-64
2022/07/18 05:00:26;;;;;;;1.60;1.02;;;;;;;16.07;nan;101261.88;5030596;28;20036;-65
2022/07/18 05:02:54;;;;;;;1.98;0.90;;;;;;;16.20;nan;101257.84;5047697;28;20048;-69
2022/07/18 05:05:20;;;;;;;2.20;1.15;;;;;;;16.30;nan;101255.81;5048801;28;20069;-65
2022/07/18 05:07:48;;;;;;;1.60;1.02;;;;;;;16.45;nan;101261.28;5047744;28;20060;-65
2022/07/18 05:10:16;;;;;;;2.22;1.20;;;;;;;16.58;nan;101260.72;5049207;28;20025;-65
2022/07/18 05:12:44;;;;;;;2.22;1.10;;;;;;;16.69;nan;101268.38;5050191;28;20044;-65
2022/07/18 05:15:13;;;;;;;2.60;1.17;;;;;;;16.78;nan;101275.34;5046889;28;20083;-64
2022/07/18 05:17:39;;;;;;;2.50;1.10;;;;;;;16.89;nan;101277.63;5048380;28;20583;-65
2022/07/18 05:20:06;;;;;;;2.95;1.20;;;;;;;16.96;nan;101275.09;5045832;28;20037;-65
2022/07/18 05:22:33;;;;;;;1.85;1.15;;;;;;;17.04;nan;101280.41;5029644;28;20041;-65
2022/07/18 05:25:00;;;;;;;2.92;1.30;;;;;;;17.10;nan;101285.03;5047642;28;20116;-65
2022/07/18 05:27:25;;;;;;;2.95;1.23;;;;;;;17.19;nan;101288.50;5048127;28;20052;-64
2022/07/18 05:29:51;;;;;;;2.00;1.20;;;;;;;17.29;nan;101277.56;5047960;28;20041;-65
2022/07/18 05:32:16;;;;;;;2.20;1.00;;;;;;;17.40;nan;101288.69;5046110;28;20064;-65
2022/07/18 05:34:41;;;;;;;2.38;1.27;;;;;;;17.59;nan;101282.03;5047292;28;20032;-64
2022/07/18 05:37:07;;;;;;;2.83;1.45;;;;;;;17.75;nan;101278.38;5046467;28;20497;-65
2022/07/18 05:39:32;;;;;;;3.83;1.35;;;;;;;17.94;nan;101289.63;5046609;28;20029;-67
2022/07/18 05:41:57;;;;;;;2.53;1.40;;;;;;;18.10;nan;101294.00;5048117;28;20040;-64
2022/07/18 05:44:22;;;;;;;2.55;1.30;;;;;;;18.29;nan;101292.63;5047444;28;20044;-65
2022/07/18 05:46:48;;;;;;;2.78;1.13;;;;;;;18.56;nan;101286.59;5048089;28;20075;-65
2022/07/18 05:49:14;;;;;;;2.08;1.13;;;;;;;18.96;nan;101281.78;5047225;28;20082;-65
2022/07/18 05:51:40;;;;;;;2.17;1.02;;;;;;;19.49;nan;101282.31;5047243;28;20082;-65
2022/07/18 05:54:05;;;;;;;1.83;1.20;;;;;;;20.04;nan;101277.22;5046763;28;20021;-66
2022/07/18 05:56:31;;;;;;;2.43;1.20;;;;;;;20.82;nan;101278.94;5046795;28;20405;-66
2022/07/18 05:58:56;;;;;;;;;;;;;;;21.26;nan;101286.53;5047626;28;20359;-66
2022/07/18 06:01:22;;;;;;;1.27;0.87;;;;;;;21.73;nan;101275.81;5045782;28;19970;-66
2022/07/18 06:03:47;;;;;;;1.67;0.90;;;;;;;22.08;nan;101279.13;5048720;28;20436;-66
2022/07/18 06:06:14;;;;;;;2.35;1.10;;;;;;;22.50;nan;101279.69;5049639;28;20215;-66
2022/07/18 06:08:40;;;;;;;1.48;0.98;;;;;;;23.00;nan;101269.13;5048886;28;20036;-65
2022/07/18 06:11:07;;;;;;;1.80;1.00;;;;;;;23.46;nan;101275.25;5048702;28;20039;-65
2022/07/18 06:13:34;;;;;;;2.25;1.08;;;;;;;23.93;nan;101276.56;5048725;28;20033;-65
2022/07/18 06:15:59;;;;;;;2.88;1.10;;;;;;;24.46;nan;101279.75;5049429;28;20128;-65
2022/07/18 06:18:25;;;;;;;1.73;1.02;;;;;;;24.94;nan;101279.78;5047235;28;20163;-65
2022/07/18 06:20:50;;;;;;;2.33;1.20;;;;;;;25.25;nan;101279.81;5048058;28;20041;-65
2022/07/18 06:23:15;;;;;;;2.05;1.15;;;;;;;25.53;nan;101277.31;5048769;28;20294;-65
2022/07/18 06:25:41;;;;;;;2.67;1.27;;;;;;;25.88;nan;101273.81;5048437;28;20121;-65
2022/07/18 06:28:06;;;;;;;1.90;1.08;;;;;;;;;;5048265;28;20485;-67
2022/07/18 06:30:31;;;;;;;1.70;1.00;;;;;;;26.70;nan;101270.19;5045476;28;20061;-68
2022/07/18 06:32:58;;;;;;;2.80;1.10;;;;;;;26.93;nan;101265.72;5041508;28;20044;-69
2022/07/18 06:35:23;;;;;;;2.50;1.30;;;;;;;26.97;nan;101265.00;5036822;28;20345;-67
2022/07/18 06:37:49;;;;;;;1.67;1.00;;;;;;;27.04;nan;101273.81;5035792;28;20045;-68
2022/07/18 06:40:14;;;;;;;4.23;1.30;;;;;;;27.04;nan;101273.00;5032029;28;20103;-68
2022/07/18 06:42:39;;;;;;;2.80;1.20;;;;;;;27.28;nan;101273.72;5024811;28;20698;-67
2022/07/18 06:45:06;;;;;;;1.83;1.00;;;;;;;27.53;nan;101268.75;5037060;28;20087;-69
2022/07/18 06:47:31;;;;;;;2.38;1.30;;;;;;;27.75;nan;101278.88;5025540;28;20564;-68
2022/07/18 06:49:56;;;;;;;3.33;1.30;;;;;;;27.93;nan;101269.63;5041889;28;20125;-68
2022/07/18 06:52:22;;;;;;;3.20;1.20;;;;;;;28.27;nan;101267.69;5045562;28;20632;-68
2022/07/18 06:54:47;;;;;;;2.28;1.00;;;;;;;28.66;nan;101267.63;5044872;28;20032;-67
2022/07/18 06:57:12;;;;;;;2.78;1.10;;;;;;;28.83;nan;101267.53;5046159;28;20037;-69
2022/07/18 06:59:38;;;;;;;3.05;1.30;;;;;;;28.79;nan;101272.69;5043498;28;20053;-68
2022/07/18 07:02:04;;;;;;;2.97;1.58;;;;;;;28.74;nan;101280.78;5045889;28;20053;-68
2022/07/18 07:04:29;;;;;;;2.08;1.38;;;;;;;28.66;nan;101281.25;5045817;28;20102;-68
2022/07/18 07:06:55;;;;;;;2.47;1.08;;;;;;;28.86;nan;101286.06;5046472;28;20033;-68
2022/07/18 07:09:20;;;;;;;2.17;1.25;;;;;;;28.81;nan;101275.13;5044484;28;20041;-66
2022/07/18 07:11:45;;;;;;;2.03;1.00;;;;;;;29.10;nan;101272.19;5064941;23;20496;-66
2022/07/18 07:14:10;;;;;;;2.80;1.20;;;;;;;29.33;nan;101268.34;5042345;28;20284;-69
2022/07/18 07:16:36;;;;;;;1.77;1.00;;;;;;;29.53;nan;101267.66;5045833;28;20579;-66
2022/07/18 07:19:01;;;;;;;4.00;1.20;;;;;;;29.66;nan;101272.69;5045255;28;20382;-65
2022/07/18 07:21:26;;;;;;;4.32;1.02;;;;;;;29.84;nan;101276.91;5044514;28;20333;-68
2022/07/18 07:23:52;;;;;;;2.33;1.00;;;;;;;29.83;nan;101267.91;5027090;28;20112;-66
2022/07/18 07:26:17;;;;;;;2.10;1.10;;;;;;;29.89;nan;101274.25;5042565;28;20301;-67
2022/07/18 07:28:42;;;;;;;2.15;1.00;;;;;;;29.92;nan;101278.34;5042535;28;20091;-66
2022/07/18 07:31:08;;;;;;;3.05;1.20;;;;;;;30.35;nan;101266.31;5040813;28;20033;-67
2022/07/18 07:33:34;;;;;;;3.13;1.20;;;;;;;30.43;nan;101268.53;5043929;28;20497;-66
2022/07/18 07:36:00;;;;;;;2.40;0.90;;;;;;;30.42;nan;101268.81;5042640;28;20033;-66
2022/07/18 07:38:28;;;;;;;2.17;0.85;;;;;;;30.71;nan;101271.09;5044424;28;20390;-67
2022/07/18 07:40:54;;;;;;;2.17;0.75;;;;;;;30.86;nan;101268.44;5048857;28;20451;-68
2022/07/18 07:43:19;;;;;;;2.17;1.08;;;;;;;31.25;nan;101270.66;5048633;28;20045;-66
2022/07/18 07:45:48;;;;;;;1.90;0.90;;;;;;;31.23;nan;101262.75;5047615;28;20059;-66
2022/07/18 07:48:15;;;;;;;1.38;0.80;;;;;;;31.22;nan;101265.75;5047624;28;20049;-67
2022/07/18 07:50:40;;;;;;;2.35;0.90;;;;;;;31.38;nan;101255.66;5048546;28;20033;-67
2022/07/18 07:53:06;;;;;;;1.92;0.90;;;;;;;31.55;nan;101256.19;5047945;28;20546;-66
2022/07/18 07:55:32;;;;;;;2.67;0.77;;;;;;;31.76;nan;101253.47;5048785;28;20396;-66
2022/07/18 07:57:57;;;;;;;2.28;0.80;;;;;;;31.90;nan;101249.84;5048923;28;20041;-66
2022/07/18 08:00:23;;;;;;;1.67;0.80;;;;;;;32.11;nan;101260.78;5047006;28;20037;-67
2022/07/18 08:03:01;;;;;;;2.15;0.90;;;;;;;32.58;nan;101260.34;5028329;28;20037;-67
2022/07/18 08:05:28;;;;;;;1.40;0.70;;;;;;;33.04;nan;101247.47;5048673;28;20119;-67
2022/07/18 08:07:53;;;;;;;2.25;0.80;;;;;;;33.33;nan;101253.81;5047447;28;20055;-67
2022/07/18 08:10:19;;;;;;;2.38;0.95;;;;;;;33.49;nan;101250.91;5046311;28;20045;-67
2022/07/18 08:12:44;;;;;;;3.00;0.93;;;;;;;33.47;nan;101247.69;5050894;28;20033;-67
2022/07/18 08:15:10;;;;;;;1.40;0.85;;;;;;;33.75;nan;101237.81;5046532;28;20025;-67
2022/07/18 08:17:35;;;;;;;2.33;0.70;;;;;;;34.46;nan;101238.91;5046972;28;20025;-67
2022/07/18 08:20:01;;;;;;;1.48;0.77;;;;;;;34.83;nan;101242.81;5047080;28;20412;-67
2022/07/18 08:22:26;;;;;;;3.10;1.10;;;;;;;34.95;nan;101245.91;5045908;28;20037;-67
2022/07/18 08:24:52;;;;;;;1.45;0.80;;;;;;;35.06;nan;101238.31;5047147;28;20029;-67
2022/07/18 08:27:17;;;;;;;1.27;0.80;;;;;;;35.59;nan;101234.41;5030600;28;20391;-67
2022/07/18 08:29:42;;;;;;;1.65;0.80;;;;;;;36.14;nan;101229.00;5048077;28;20039;-67
2022/07/18 08:32:08;;;;;;;1.65;0.82;;;;;;;36.38;nan;101238.97;5045632;28;20401;-67
2022/07/18 08:34:33;;;;;;;2.97;0.95;;;;;;;36.53;nan;101239.41;5047136;28;20036;-67
2022/07/18 08:36:59;;;;;;;1.48;0.60;;;;;;;36.69;nan;101230.84;5045118;28;20045;-67
2022/07/18 08:39:24;;;;;;;1.40;0.77;;;;;;;37.31;nan;101230.16;5047427;28;20053;-67
2022/07/18 08:41:51;;;;;;;1.30;0.80;;;;;;;37.96;nan;101217.66;5046512;28;20501;-67
2022/07/18 08:44:17;;;;;;;3.15;0.90;;;;;;;38.51;nan;101219.91;5042878;28;20283;-68
2022/07/18 08:46:49;;;;;;;1.70;0.80;;;;;;;38.58;nan;101224.94;5047408;28;20036;-67
2022/07/18 08:49:15;;;;;;;1.63;0.60;;;;;;;38.79;nan;101216.81;5045409;28;20033;-67
2022/07/18 08:51:42;;;;;;;1.15;0.63;;;;;;;39.36;nan;101213.81;5045503;28;20041;-67
2022/07/18 08:54:08;;;;;;;1.63;0.70;;;;;;;39.64;nan;101216.16;5045943;28;20029;-68
2022/07/18 08:56:33;;;;;;;1.38;0.70;;;;;;;40.19;nan;101220.78;5045576;28;20095;-67
2022/07/18 08:59:02;;;;;;;1.60;0.80;;;;;;;40.41;nan;101225.19;5046778;28;20033;-67
2022/07/18 09:01:27;;;;;;;1.33;0.70;;;;;;;40.70;nan;101223.53;5044788;28;20381;-67
2022/07/18 09:04:38;;;;;;;1.10;0.80;;;;;;;41.32;nan;101216.22;5044240;28;20028;-68
2022/07/18 09:06:49;;;;;;;2.00;1.00;;;;;;;41.29;nan;101220.50;5016306;28;20136;-68
2022/07/18 09:09:16;;;;;;;2.92;0.95;;;;;;;41.30;nan;101210.22;5024302;28;20029;-67
2022/07/18 09:12:11;;;;;;;1.27;0.80;;;;;;;41.69;nan;101213.50;5025594;28;20046;-68
2022/07/18 09:14:42;;;;;;;1.48;0.60;;;;;;;41.97;nan;101206.09;5011126;28;20033;-68
2022/07/18 09:17:13;;;;;;;1.65;0.70;;;;;;;42.49;nan;101203.69;5026680;28;20040;-68
2022/07/18 09:19:55;;;;;;;2.85;0.90;;;;;;;42.91;nan;101214.41;5025240;28;20053;-68
2022/07/18 09:22:22;;;;;;;2.35;0.85;;;;;;;42.91;nan;101215.25;5020889;28;20038;-68
2022/07/18 09:24:52;;;;;;;1.70;0.70;;;;;;;43.03;nan;101217.97;5026232;28;20088;-68
2022/07/18 09:27:30;;;;;;;2.80;0.90;;;;;;;43.08;nan;101222.44;5024403;28;20049;-67
2022/07/18 09:30:32;;;;;;;1.50;0.80;;;;;;;43.04;nan;101210.41;5025672;28;20264;-68
2022/07/18 09:33:03;;;;;;;2.22;0.85;;;;;;;43.36;nan;101205.72;5023276;28;21880;-68
2022/07/18 09:35:30;;;;;;;1.27;0.82;;;;;;;43.44;nan;101209.47;5028508;28;20542;-68
2022/07/18 09:38:11;;;;;;;4.00;0.70;;;;;;;43.75;nan;101208.66;5025189;28;20080;-69
2022/07/18 09:40:39;;;;;;;3.38;0.70;;;;;;;43.85;nan;101190.56;5045521;28;20060;-67
2022/07/18 09:43:07;;;;;;;1.58;0.75;;;;;;;44.01;nan;101201.72;5045177;28;20029;-66
2022/07/18 09:45:36;;;;;;;0.95;0.60;;;;;;;44.30;nan;101194.78;5044822;28;20033;-67
2022/07/18 09:48:04;;;;;;;1.85;0.70;;;;;;;44.59;nan;101190.59;5042740;28;20917;-68
2022/07/18 09:50:31;;;;;;;1.90;0.70;;;;;;;44.47;nan;101190.75;5025798;28;20045;-68
2022/07/18 09:53:19;;;;;;;12.05;1.13;;;;;;;44.79;nan;101183.03;5039380;28;20493;-68
2022/07/18 09:55:47;;;;;;;5.88;0.98;;;;;;;45.04;nan;101186.28;5042448;28;20041;-67
2022/07/18 09:58:16;;;;;;;;;;;;;;;45.35;nan;101190.03;5044471;28;20041;-68
2022/07/18 10:00:41;;;;;;;7.30;1.20;;;;;;;45.00;nan;101176.22;5042839;28;19921;-68
2022/07/18 10:03:07;;;;;;;10.40;1.10;;;;;;;45.38;nan;101177.31;5044757;28;20051;-68
2022/07/18 10:05:33;;;;;;;;;;;;;;;46.05;nan;101177.53;5045188;28;20052;-66
2022/07/18 10:08:00;;;;;;;3.85;0.80;;;;;;;46.40;nan;101182.00;5046039;28;20007;-69
2022/07/18 10:10:27;;;;;;;10.63;1.50;;;;;;;46.33;nan;101171.50;5025678;28;20132;-67
2022/07/18 10:12:58;;;;;;;2.40;0.82;;;;;;;46.42;nan;101164.84;5043349;28;20124;-67
2022/07/18 10:15:27;;;;;;;25.67;1.60;;;;;;;46.96;nan;101164.22;5043745;28;20044;-67
2022/07/18 10:17:53;;;;;;;6.82;0.90;;;;;;;46.97;nan;101179.00;5039905;28;20029;-67
2022/07/18 10:20:25;;;;;;;4.70;0.82;;;;;;;46.94;nan;101175.00;5045237;28;20508;-68
2022/07/18 10:22:54;;;;;;;10.48;1.30;;;;;;;46.74;nan;101168.78;5041328;28;20439;-67
2022/07/18 10:25:22;;;;;;;3.50;0.90;;;;;;;46.56;nan;101170.59;5033367;28;20049;-68
2022/07/18 10:27:52;;;;;;;14.30;1.20;;;;;;;45.84;nan;101169.66;5044156;28;20040;-68
2022/07/18 10:30:28;;;;;;;7.60;1.02;;;;;;;45.99;nan;101167.88;5041422;28;20389;-69
2022/07/18 10:32:53;;;;;;;6.22;0.70;;;;;;;46.65;nan;101161.88;5039221;28;20475;-68
2022/07/18 10:35:57;;;;;;;27.67;1.40;;;;;;;47.20;nan;101170.44;5044981;28;20037;-68
2022/07/18 10:38:22;;;;;;;32.17;2.15;;;;;;;47.05;nan;101163.06;5042626;28;20477;-68
2022/07/18 10:41:08;;;;;;;4.50;1.00;;;;;;;46.31;nan;101159.06;5046883;28;20029;-68
2022/07/18 10:43:36;;;;;;;4.80;0.70;;;;;;;46.30;nan;101161.06;5044235;28;20037;-68
2022/07/18 10:46:04;;;;;;;10.32;1.00;;;;;;;46.66;nan;101166.28;5043218;28;20029;-69
2022/07/18 10:48:53;;;;;;;2.80;0.90;;;;;;;46.90;nan;101168.53;5043728;28;20092;-66
2022/07/18 10:51:27;;;;;;;10.07;0.90;;;;;;;46.91;nan;101164.53;5039522;28;20048;-66
2022/07/18 10:53:57;;;;;;;30.20;1.58;;;;;;;47.81;nan;101165.25;5043967;28;20450;-66
2022/07/18 10:56:28;;;;;;;2.78;0.80;;;;;;;48.72;nan;101164.44;5041584;28;20248;-68
2022/07/18 10:59:00;;;;;;;2.25;0.70;;;;;;;47.65;nan;101157.97;5043682;28;20550;-66
2022/07/18 11:01:26;;;;;;;2.22;0.77;;;;;;;47.86;nan;101150.88;5042754;28;20106;-67
2022/07/18 11:04:26;;;;;;;3.58;0.80;;;;;;;48.69;nan;101149.19;5040482;28;20404;-66
2022/07/18 11:06:55;;;;;;;4.10;1.50;;;;;;;48.92;nan;101137.59;5022549;28;20042;-66
2022/07/18 11:09:38;;;;;;;2.33;1.13;;;;;;;48.95;nan;101142.41;5021887;28;20448;-67
2022/07/18 11:12:23;;;;;;;1.88;0.75;;;;;;;48.73;nan;101141.59;5020234;28;20061;-67
2022/07/18 11:14:57;;;;;;;2.17;0.82;;;;;;;48.94;nan;101145.63;5025872;28;20643;-66
2022/07/18 11:17:51;;;;;;;1.77;0.60;;;;;;;49.57;nan;101135.53;5027048;28;20050;-66
2022/07/18 11:20:38;;;;;;;1.65;0.90;;;;;;;49.85;nan;101137.47;5025566;28;20671;-67
2022/07/18 11:23:13;;;;;;;2.22;0.85;;;;;;;49.95;nan;101131.00;5022699;28;20064;-66
2022/07/18 11:25:39;;;;;;;2.15;0.80;;;;;;;50.43;nan;101132.41;5028488;28;20041;-66
2022/07/18 11:28:08;;;;;;;2.30;0.60;;;;;;;50.34;nan;101134.84;5026559;28;20030;-66
2022/07/18 11:30:33;;;;;;;1.60;0.90;;;;;;;50.69;nan;101130.22;5026195;28;20493;-66
2022/07/18 11:32:59;;;;;;;1.67;1.00;;;;;;;50.92;nan;101129.63;5023812;28;20323;-66
2022/07/18 11:35:25;;;;;;;2.10;0.90;;;;;;;51.11;nan;101126.28;5029222;28;20034;-66
2022/07/18 11:37:51;;;;;;;1.60;0.70;;;;;;;51.54;nan;101123.03;5030017;28;20141;-66
2022/07/18 11:40:17;;;;;;;2.78;1.70;;;;;;;51.88;nan;101116.59;5030196;28;20029;-66
2022/07/18 11:42:43;;;;;;;3.55;2.17;;;;;;;51.97;nan;101110.44;5025756;28;20060;-67
2022/07/18 11:45:12;;;;;;;1.92;1.10;;;;;;;51.80;nan;101113.06;5024631;28;20126;-67